createdAt,value
2019-05-25T00:01:32.199Z,13
2019-05-25T00:06:47.203Z,13
2019-05-25T00:12:03.793Z,13
2019-05-25T00:17:20.137Z,13
2019-05-25T00:22:35.080Z,14
2019-05-25T00:27:50.245Z,14
2019-05-25T00:33:05.628Z,14
2019-05-25T00:38:21.341Z,14
2019-05-25T00:54:01.341Z,13
2019-05-25T00:59:17.938Z,13
2019-05-25T01:04:32.274Z,13
2019-05-25T01:09:48.590Z,13
2019-05-25T01:15:05.174Z,13
2019-05-25T01:20:20.451Z,13
2019-05-25T01:25:35.367Z,13
2019-05-25T01:30:50.433Z,14
2019-05-25T01:36:05.350Z,14
2019-05-25T01:41:18.541Z,14
2019-05-25T01:46:37.818Z,14
2019-05-25T01:57:06.042Z,13
2019-05-25T02:02:21.252Z,13
2019-05-25T02:07:36.572Z,13
2019-05-25T02:12:51.977Z,13
2019-05-25T02:18:07.239Z,13
2019-05-25T02:23:20.831Z,13
2019-05-25T02:28:36.968Z,13
2019-05-25T02:33:52.170Z,13
2019-05-25T02:39:07.535Z,13
2019-05-25T02:44:19.934Z,13
2019-05-25T02:49:36.844Z,13
2019-05-25T02:54:52.314Z,13
2019-05-25T03:00:07.911Z,13
2019-05-25T03:05:24.900Z,13
2019-05-25T03:10:40.947Z,13
2019-05-25T03:15:56.342Z,13
2019-05-25T03:21:11.787Z,13
2019-05-25T03:26:27.541Z,13
2019-05-25T03:31:41.075Z,13
2019-05-25T03:36:57.393Z,13
2019-05-25T03:42:10.604Z,13
2019-05-25T03:47:26.850Z,13
2019-05-25T03:52:42.133Z,13
2019-05-25T03:57:57.471Z,13
2019-05-25T04:03:12.959Z,13
2019-05-25T04:08:30.498Z,13
2019-05-25T04:13:43.294Z,13
2019-05-25T04:19:00.159Z,13
2019-05-25T04:24:16.593Z,13
2019-05-25T04:29:29.767Z,13
2019-05-25T04:34:48.448Z,13
2019-05-25T04:40:04.712Z,14
2019-05-25T04:45:21.534Z,14
2019-05-25T04:50:36.798Z,14
2019-05-25T04:55:52.039Z,14
2019-05-25T05:01:07.593Z,14
2019-05-25T05:06:22.592Z,14
2019-05-25T05:11:38.056Z,14
2019-05-25T05:16:53.093Z,15
2019-05-25T05:22:09.576Z,15
2019-05-25T05:27:26.955Z,15
2019-05-25T05:33:10.891Z,16
2019-05-25T05:38:25.464Z,16
2019-05-25T05:38:55.286Z,17
2019-05-25T05:44:10.541Z,17
2019-05-25T05:49:26.388Z,17
2019-05-25T05:54:41.674Z,17
2019-05-25T05:59:56.651Z,17
2019-05-25T06:05:11.649Z,17
2019-05-25T06:05:48.138Z,17
2019-05-25T06:11:02.443Z,17
2019-05-25T06:16:17.379Z,17
2019-05-25T06:21:32.715Z,18
2019-05-25T06:26:47.877Z,18
2019-05-25T06:32:03.253Z,18
2019-05-25T06:37:18.529Z,19
2019-05-25T06:42:35.616Z,19
2019-05-25T06:47:51.221Z,20
2019-05-25T06:53:07.301Z,20
2019-05-25T06:58:23.635Z,20
2019-05-25T07:19:18.464Z,20
2019-05-25T07:24:34.352Z,20
2019-05-25T07:29:52.770Z,20
2019-05-25T07:35:09.363Z,21
2019-05-25T07:40:26.595Z,21
2019-05-25T07:45:43.880Z,21
2019-05-25T07:51:00.102Z,21
2019-05-25T08:17:09.367Z,22
2019-05-25T08:27:39.174Z,22
2019-05-25T08:38:10.865Z,22
2019-05-25T08:43:28.393Z,23
2019-05-25T08:48:44.418Z,23
2019-05-25T08:54:01.734Z,23
2019-05-25T09:04:31.610Z,23
2019-05-25T09:09:47.498Z,24
2019-05-25T09:30:44.954Z,24
2019-05-25T10:44:05.390Z,25
2019-05-25T11:10:21.368Z,26
2019-05-25T11:15:37.832Z,26
2019-05-25T11:20:54.048Z,27
2019-05-25T11:36:38.418Z,27
2019-05-25T13:11:10.045Z,25
2019-05-25T13:16:26.459Z,26
2019-05-25T13:21:43.402Z,27
2019-05-25T13:26:59.581Z,28
2019-05-25T13:42:43.419Z,29
2019-05-25T13:47:59.666Z,29
2019-05-25T14:03:44.258Z,29
2019-05-25T14:04:21.311Z,29
2019-05-25T14:09:36.667Z,30
2019-05-25T14:14:54.910Z,31
2019-05-25T18:04:55.109Z,21
2019-05-25T18:10:09.962Z,21
2019-05-25T18:15:24.498Z,20
2019-05-25T18:20:40.838Z,20
2019-05-25T18:25:55.965Z,20
2019-05-25T18:31:13.454Z,19
2019-05-25T18:36:28.707Z,19
2019-05-25T18:41:44.410Z,19
2019-05-25T18:46:59.985Z,19
2019-05-25T18:52:12.677Z,18
2019-05-25T18:57:28.842Z,18
2019-05-25T19:02:45.319Z,18
2019-05-25T19:08:00.599Z,18
2019-05-25T19:13:17.327Z,18
2019-05-25T19:18:33.140Z,18
2019-05-25T19:23:48.134Z,18
2019-05-25T19:29:06.314Z,18
2019-05-25T19:34:21.227Z,18
2019-05-25T19:39:38.587Z,18
2019-05-25T19:44:53.875Z,18
2019-05-25T19:50:09.243Z,18
2019-05-25T19:55:23.924Z,18
2019-05-25T20:00:40.151Z,17
2019-05-25T20:05:54.090Z,17
2019-05-25T20:11:10.284Z,17
2019-05-25T20:16:25.609Z,17
2019-05-25T20:21:40.472Z,17
2019-05-25T20:26:55.584Z,17
2019-05-25T20:32:11.927Z,17
2019-05-25T20:37:27.891Z,17
2019-05-25T20:42:44.000Z,17
2019-05-25T20:47:58.910Z,17
2019-05-25T20:53:11.061Z,17
2019-05-25T20:58:27.104Z,17
2019-05-25T21:03:45.453Z,16
2019-05-25T21:09:00.216Z,16
2019-05-25T21:14:15.757Z,16
2019-05-25T21:19:30.940Z,16
2019-05-25T21:24:44.281Z,16
2019-05-25T21:29:59.896Z,16
2019-05-25T21:35:15.065Z,16
2019-05-25T21:40:30.049Z,16
2019-05-25T21:45:44.981Z,16
2019-05-25T21:50:59.826Z,16
2019-05-25T21:56:14.605Z,16
2019-05-25T22:01:29.806Z,16
2019-05-25T22:06:45.509Z,16
2019-05-25T22:11:58.817Z,16
2019-05-25T22:17:14.861Z,16
2019-05-25T22:22:29.794Z,16
2019-05-25T22:27:44.787Z,16
2019-05-25T22:32:59.459Z,16
2019-05-25T22:38:14.871Z,16
2019-05-25T22:43:29.616Z,16
2019-05-25T22:48:44.789Z,16
2019-05-25T22:54:00.257Z,16
2019-05-25T23:14:55.930Z,15
2019-05-25T23:20:10.892Z,15
2019-05-25T23:25:26.030Z,14
2019-05-25T23:30:40.366Z,14
2019-05-25T23:35:56.694Z,14
2019-05-25T23:41:14.389Z,14
2019-05-25T23:46:26.524Z,14
2019-05-25T23:51:41.850Z,14
2019-05-25T23:56:55.807Z,14
